sensor_id;sensor_type;location;lat;lon;timestamp;pressure;altitude;pressure_sealevel;temperature;humidity
19751;BME280;4663;49.120;9.730;2023-04-27T00:01:11;98173.78;;;5.89;81.31
19751;BME280;4663;49.120;9.730;2023-04-27T00:03:38;98181.38;;;5.50;81.91
19751;BME280;4663;49.120;9.730;2023-04-27T00:06:03;98177.03;;;5.37;82.36
19751;BME280;4663;49.120;9.730;2023-04-27T00:08:29;98180.09;;;5.33;83.52
19751;BME280;4663;49.120;9.730;2023-04-27T00:10:55;98174.00;;;5.42;83.34
19751;BME280;4663;49.120;9.730;2023-04-27T00:13:21;98158.63;;;5.46;82.15
19751;BME280;4663;49.120;9.730;2023-04-27T00:15:46;98165.69;;;5.24;83.05
19751;BME280;4663;49.120;9.730;2023-04-27T00:18:12;98162.91;;;5.25;83.02
19751;BME280;4663;49.120;9.730;2023-04-27T00:20:37;98162.41;;;5.09;83.66
19751;BME280;4663;49.120;9.730;2023-04-27T00:23:04;98155.69;;;4.93;83.68
19751;BME280;4663;49.120;9.730;2023-04-27T00:25:29;98159.28;;;4.92;84.19
19751;BME280;4663;49.120;9.730;2023-04-27T00:27:55;98162.09;;;4.79;85.09
19751;BME280;4663;49.120;9.730;2023-04-27T00:30:20;98160.88;;;4.72;85.62
19751;BME280;4663;49.120;9.730;2023-04-27T00:32:46;98153.16;;;5.03;84.31
19751;BME280;4663;49.120;9.730;2023-04-27T00:35:11;98145.63;;;4.74;84.80
19751;BME280;4663;49.120;9.730;2023-04-27T00:37:37;98149.50;;;5.16;83.31
19751;BME280;4663;49.120;9.730;2023-04-27T00:40:06;98151.41;;;5.25;82.43
19751;BME280;4663;49.120;9.730;2023-04-27T00:42:33;98160.50;;;5.11;82.54
19751;BME280;4663;49.120;9.730;2023-04-27T00:44:58;98149.50;;;4.70;83.42
19751;BME280;4663;49.120;9.730;2023-04-27T00:47:24;98155.28;;;4.75;83.61
19751;BME280;4663;49.120;9.730;2023-04-27T00:49:50;98144.91;;;4.95;81.96
19751;BME280;4663;49.120;9.730;2023-04-27T00:52:16;98149.59;;;4.68;83.17
19751;BME280;4663;49.120;9.730;2023-04-27T00:54:41;98151.78;;;4.63;83.62
19751;BME280;4663;49.120;9.730;2023-04-27T00:57:07;98153.00;;;4.70;83.21
19751;BME280;4663;49.120;9.730;2023-04-27T00:59:33;98152.78;;;4.73;82.68
19751;BME280;4663;49.120;9.730;2023-04-27T01:01:58;98155.88;;;4.56;83.07
19751;BME280;4663;49.120;9.730;2023-04-27T01:04:24;98159.13;;;4.48;83.85
19751;BME280;4663;49.120;9.730;2023-04-27T01:06:50;98142.72;;;4.77;82.26
19751;BME280;4663;49.120;9.730;2023-04-27T01:09:15;98151.19;;;4.82;82.01
19751;BME280;4663;49.120;9.730;2023-04-27T01:11:44;98141.53;;;4.70;81.08
19751;BME280;4663;49.120;9.730;2023-04-27T01:14:10;98158.38;;;4.34;83.22
19751;BME280;4663;49.120;9.730;2023-04-27T01:16:35;98158.41;;;4.57;82.89
19751;BME280;4663;49.120;9.730;2023-04-27T01:19:01;98158.28;;;4.47;83.09
19751;BME280;4663;49.120;9.730;2023-04-27T01:21:27;98161.13;;;4.21;84.59
19751;BME280;4663;49.120;9.730;2023-04-27T01:23:53;98157.38;;;4.24;84.45
19751;BME280;4663;49.120;9.730;2023-04-27T01:26:18;98151.63;;;4.42;82.14
19751;BME280;4663;49.120;9.730;2023-04-27T01:28:44;98159.91;;;3.90;84.46
19751;BME280;4663;49.120;9.730;2023-04-27T01:31:10;98170.63;;;3.88;85.14
19751;BME280;4663;49.120;9.730;2023-04-27T01:33:36;98166.91;;;3.91;85.37
19751;BME280;4663;49.120;9.730;2023-04-27T01:36:02;98157.19;;;4.03;85.00
19751;BME280;4663;49.120;9.730;2023-04-27T01:38:27;98167.53;;;4.30;83.41
19751;BME280;4663;49.120;9.730;2023-04-27T01:40:52;98166.44;;;4.21;82.72
19751;BME280;4663;49.120;9.730;2023-04-27T01:43:29;98166.69;;;3.94;84.75
19751;BME280;4663;49.120;9.730;2023-04-27T01:45:55;98162.88;;;4.09;83.36
19751;BME280;4663;49.120;9.730;2023-04-27T01:48:21;98175.66;;;4.04;83.65
19751;BME280;4663;49.120;9.730;2023-04-27T01:50:46;98164.47;;;4.12;82.79
19751;BME280;4663;49.120;9.730;2023-04-27T01:53:12;98163.09;;;4.06;82.96
19751;BME280;4663;49.120;9.730;2023-04-27T01:55:37;98169.78;;;4.12;82.34
19751;BME280;4663;49.120;9.730;2023-04-27T01:58:03;98175.63;;;3.93;82.71
19751;BME280;4663;49.120;9.730;2023-04-27T02:00:28;98174.09;;;3.77;83.83
19751;BME280;4663;49.120;9.730;2023-04-27T02:02:54;98180.66;;;3.85;83.55
19751;BME280;4663;49.120;9.730;2023-04-27T02:05:22;98182.78;;;3.55;84.64
19751;BME280;4663;49.120;9.730;2023-04-27T02:07:47;98176.78;;;3.64;84.33
19751;BME280;4663;49.120;9.730;2023-04-27T02:10:13;98172.91;;;3.81;83.29
19751;BME280;4663;49.120;9.730;2023-04-27T02:12:38;98182.59;;;3.45;85.08
19751;BME280;4663;49.120;9.730;2023-04-27T02:15:04;98181.91;;;3.54;84.87
19751;BME280;4663;49.120;9.730;2023-04-27T02:17:33;98185.22;;;3.82;83.67
19751;BME280;4663;49.120;9.730;2023-04-27T02:19:58;98187.41;;;3.64;83.88
19751;BME280;4663;49.120;9.730;2023-04-27T02:22:23;98185.31;;;3.56;83.44
19751;BME280;4663;49.120;9.730;2023-04-27T02:24:48;98188.88;;;3.44;84.37
19751;BME280;4663;49.120;9.730;2023-04-27T02:27:14;98192.63;;;3.28;85.56
19751;BME280;4663;49.120;9.730;2023-04-27T02:29:39;98192.47;;;3.43;84.87
19751;BME280;4663;49.120;9.730;2023-04-27T02:32:05;98190.56;;;3.45;84.24
19751;BME280;4663;49.120;9.730;2023-04-27T02:34:30;98189.19;;;3.39;84.66
19751;BME280;4663;49.120;9.730;2023-04-27T02:36:56;98176.91;;;3.63;83.48
19751;BME280;4663;49.120;9.730;2023-04-27T02:39:21;98178.59;;;3.64;83.20
19751;BME280;4663;49.120;9.730;2023-04-27T02:41:47;98185.75;;;3.50;83.13
19751;BME280;4663;49.120;9.730;2023-04-27T02:44:12;98189.59;;;3.46;84.15
19751;BME280;4663;49.120;9.730;2023-04-27T02:46:37;98196.22;;;3.27;85.06
19751;BME280;4663;49.120;9.730;2023-04-27T02:49:03;98196.63;;;3.34;84.82
19751;BME280;4663;49.120;9.730;2023-04-27T02:51:28;98188.69;;;3.58;83.88
19751;BME280;4663;49.120;9.730;2023-04-27T02:53:53;98188.44;;;3.37;83.40
19751;BME280;4663;49.120;9.730;2023-04-27T02:56:19;98196.25;;;3.14;84.10
19751;BME280;4663;49.120;9.730;2023-04-27T02:58:44;98197.19;;;3.00;85.26
19751;BME280;4663;49.120;9.730;2023-04-27T03:01:13;98198.47;;;3.08;85.08
19751;BME280;4663;49.120;9.730;2023-04-27T03:03:38;98203.34;;;3.27;84.62
19751;BME280;4663;49.120;9.730;2023-04-27T03:06:04;98195.09;;;3.43;83.74
19751;BME280;4663;49.120;9.730;2023-04-27T03:08:30;98199.47;;;3.44;83.41
19751;BME280;4663;49.120;9.730;2023-04-27T03:10:56;98197.97;;;3.40;83.76
19751;BME280;4663;49.120;9.730;2023-04-27T03:13:21;98196.22;;;3.27;84.70
19751;BME280;4663;49.120;9.730;2023-04-27T03:15:46;98196.66;;;3.21;85.01
19751;BME280;4663;49.120;9.730;2023-04-27T03:18:12;98195.19;;;3.17;85.48
19751;BME280;4663;49.120;9.730;2023-04-27T03:20:37;98200.34;;;3.31;85.02
19751;BME280;4663;49.120;9.730;2023-04-27T03:23:02;98192.53;;;3.54;84.51
19751;BME280;4663;49.120;9.730;2023-04-27T03:25:28;98199.59;;;3.67;84.53
19751;BME280;4663;49.120;9.730;2023-04-27T03:27:53;98197.31;;;3.62;84.18
19751;BME280;4663;49.120;9.730;2023-04-27T03:30:18;98199.97;;;3.62;84.46
19751;BME280;4663;49.120;9.730;2023-04-27T03:32:44;98205.66;;;3.69;83.99
19751;BME280;4663;49.120;9.730;2023-04-27T03:35:09;98206.66;;;3.79;84.53
19751;BME280;4663;49.120;9.730;2023-04-27T03:37:35;98204.66;;;3.83;84.89
19751;BME280;4663;49.120;9.730;2023-04-27T03:40:00;98207.19;;;3.85;85.21
19751;BME280;4663;49.120;9.730;2023-04-27T03:42:26;98207.72;;;3.77;85.01
19751;BME280;4663;49.120;9.730;2023-04-27T03:44:51;98208.03;;;3.85;84.87
19751;BME280;4663;49.120;9.730;2023-04-27T03:47:16;98205.78;;;3.92;84.31
19751;BME280;4663;49.120;9.730;2023-04-27T03:49:42;98210.53;;;4.00;84.26
19751;BME280;4663;49.120;9.730;2023-04-27T03:52:07;98208.09;;;3.96;84.47
19751;BME280;4663;49.120;9.730;2023-04-27T03:54:32;98202.50;;;4.13;84.65
19751;BME280;4663;49.120;9.730;2023-04-27T03:56:58;98207.81;;;4.13;83.42
19751;BME280;4663;49.120;9.730;2023-04-27T03:59:23;98203.28;;;3.77;84.44
19751;BME280;4663;49.120;9.730;2023-04-27T04:01:48;98204.75;;;3.81;85.61
19751;BME280;4663;49.120;9.730;2023-04-27T04:04:14;98206.44;;;3.82;85.40
19751;BME280;4663;49.120;9.730;2023-04-27T04:06:39;98202.38;;;3.90;85.10
19751;BME280;4663;49.120;9.730;2023-04-27T04:09:05;98212.03;;;3.66;87.00
19751;BME280;4663;49.120;9.730;2023-04-27T04:11:30;98210.00;;;3.70;87.14
19751;BME280;4663;49.120;9.730;2023-04-27T04:13:56;98209.50;;;3.65;86.77
19751;BME280;4663;49.120;9.730;2023-04-27T04:16:21;98219.09;;;3.79;86.99
19751;BME280;4663;49.120;9.730;2023-04-27T04:18:46;98210.28;;;3.78;87.55
19751;BME280;4663;49.120;9.730;2023-04-27T04:21:12;98206.44;;;3.82;86.91
19751;BME280;4663;49.120;9.730;2023-04-27T04:23:38;98208.28;;;3.82;87.01
19751;BME280;4663;49.120;9.730;2023-04-27T04:26:05;98199.53;;;3.55;87.30
19751;BME280;4663;49.120;9.730;2023-04-27T04:28:31;98193.84;;;3.73;86.43
19751;BME280;4663;49.120;9.730;2023-04-27T04:30:56;98196.69;;;3.83;86.74
19751;BME280;4663;49.120;9.730;2023-04-27T04:33:21;98210.41;;;4.01;86.29
19751;BME280;4663;49.120;9.730;2023-04-27T04:35:47;98209.44;;;4.02;86.49
19751;BME280;4663;49.120;9.730;2023-04-27T04:38:12;98203.16;;;4.03;85.58
19751;BME280;4663;49.120;9.730;2023-04-27T04:40:38;98215.56;;;4.16;86.13
19751;BME280;4663;49.120;9.730;2023-04-27T04:43:04;98214.41;;;4.07;85.92
19751;BME280;4663;49.120;9.730;2023-04-27T04:45:30;98214.69;;;3.91;86.74
19751;BME280;4663;49.120;9.730;2023-04-27T04:47:56;98232.03;;;4.08;87.26
19751;BME280;4663;49.120;9.730;2023-04-27T04:50:21;98227.91;;;4.28;87.29
19751;BME280;4663;49.120;9.730;2023-04-27T04:52:47;98229.81;;;4.26;86.80
19751;BME280;4663;49.120;9.730;2023-04-27T04:55:14;98228.84;;;4.27;86.29
19751;BME280;4663;49.120;9.730;2023-04-27T04:57:39;98228.34;;;4.22;86.25
19751;BME280;4663;49.120;9.730;2023-04-27T05:00:05;98227.03;;;4.28;86.01
19751;BME280;4663;49.120;9.730;2023-04-27T05:02:35;98221.03;;;4.37;86.13
19751;BME280;4663;49.120;9.730;2023-04-27T05:05:00;98233.66;;;4.22;86.52
19751;BME280;4663;49.120;9.730;2023-04-27T05:07:26;98232.28;;;4.41;86.50
19751;BME280;4663;49.120;9.730;2023-04-27T05:09:51;98224.47;;;4.51;86.07
19751;BME280;4663;49.120;9.730;2023-04-27T05:12:16;98223.66;;;4.61;85.99
19751;BME280;4663;49.120;9.730;2023-04-27T05:14:42;98228.06;;;4.38;86.25
19751;BME280;4663;49.120;9.730;2023-04-27T05:17:08;98232.28;;;4.41;86.21
19751;BME280;4663;49.120;9.730;2023-04-27T05:19:33;98224.41;;;4.75;84.54
19751;BME280;4663;49.120;9.730;2023-04-27T05:21:59;98232.25;;;4.77;85.08
19751;BME280;4663;49.120;9.730;2023-04-27T05:24:25;98238.44;;;4.77;84.77
19751;BME280;4663;49.120;9.730;2023-04-27T05:26:50;98241.69;;;4.81;85.46
19751;BME280;4663;49.120;9.730;2023-04-27T05:29:15;98235.44;;;4.82;85.51
19751;BME280;4663;49.120;9.730;2023-04-27T05:31:41;98245.69;;;4.86;85.86
19751;BME280;4663;49.120;9.730;2023-04-27T05:34:07;98238.47;;;5.00;85.41
19751;BME280;4663;49.120;9.730;2023-04-27T05:36:34;98246.16;;;4.80;85.50
19751;BME280;4663;49.120;9.730;2023-04-27T05:39:00;98242.09;;;4.88;85.44
19751;BME280;4663;49.120;9.730;2023-04-27T05:41:26;98237.97;;;5.06;85.38
19751;BME280;4663;49.120;9.730;2023-04-27T05:43:51;98238.72;;;5.08;84.37
19751;BME280;4663;49.120;9.730;2023-04-27T05:46:17;98230.63;;;5.21;84.51
19751;BME280;4663;49.120;9.730;2023-04-27T05:48:43;98230.97;;;5.05;84.95
19751;BME280;4663;49.120;9.730;2023-04-27T05:51:08;98231.34;;;5.12;84.34
19751;BME280;4663;49.120;9.730;2023-04-27T05:53:33;98238.34;;;5.36;84.58
19751;BME280;4663;49.120;9.730;2023-04-27T05:55:59;98238.34;;;5.47;83.65
19751;BME280;4663;49.120;9.730;2023-04-27T05:58:26;98236.53;;;5.25;84.14
19751;BME280;4663;49.120;9.730;2023-04-27T06:00:52;98247.31;;;5.35;84.89
19751;BME280;4663;49.120;9.730;2023-04-27T06:03:17;98238.22;;;5.26;84.88
19751;BME280;4663;49.120;9.730;2023-04-27T06:05:43;98245.00;;;5.30;84.61
19751;BME280;4663;49.120;9.730;2023-04-27T06:08:09;98248.44;;;5.55;84.27
19751;BME280;4663;49.120;9.730;2023-04-27T06:10:35;98253.47;;;5.47;84.15
19751;BME280;4663;49.120;9.730;2023-04-27T06:13:00;98254.22;;;5.60;83.98
19751;BME280;4663;49.120;9.730;2023-04-27T06:15:26;98255.69;;;5.53;83.98
19751;BME280;4663;49.120;9.730;2023-04-27T06:17:51;98260.25;;;5.74;84.45
19751;BME280;4663;49.120;9.730;2023-04-27T06:20:17;98256.03;;;5.71;84.27
19751;BME280;4663;49.120;9.730;2023-04-27T06:22:42;98249.56;;;5.85;82.63
19751;BME280;4663;49.120;9.730;2023-04-27T06:25:07;98259.84;;;6.01;82.57
19751;BME280;4663;49.120;9.730;2023-04-27T06:27:33;98261.03;;;6.09;83.19
19751;BME280;4663;49.120;9.730;2023-04-27T06:29:59;98254.31;;;5.82;82.76
19751;BME280;4663;49.120;9.730;2023-04-27T06:32:24;98261.97;;;6.19;82.41
19751;BME280;4663;49.120;9.730;2023-04-27T06:34:50;98264.91;;;6.37;81.21
19751;BME280;4663;49.120;9.730;2023-04-27T06:37:15;98264.41;;;6.44;80.76
19751;BME280;4663;49.120;9.730;2023-04-27T06:39:44;98262.81;;;6.52;80.11
19751;BME280;4663;49.120;9.730;2023-04-27T06:42:10;98260.84;;;6.54;79.73
19751;BME280;4663;49.120;9.730;2023-04-27T06:44:35;98265.41;;;6.43;80.28
19751;BME280;4663;49.120;9.730;2023-04-27T06:47:01;98269.13;;;6.73;80.97
19751;BME280;4663;49.120;9.730;2023-04-27T06:49:26;98262.97;;;7.25;79.56
19751;BME280;4663;49.120;9.730;2023-04-27T06:51:52;98263.97;;;7.24;79.10
19751;BME280;4663;49.120;9.730;2023-04-27T06:54:17;98253.03;;;7.27;78.36
19751;BME280;4663;49.120;9.730;2023-04-27T06:56:43;98262.03;;;7.67;78.30
19751;BME280;4663;49.120;9.730;2023-04-27T06:59:09;98260.69;;;7.82;77.82
19751;BME280;4663;49.120;9.730;2023-04-27T07:01:35;98259.84;;;7.72;76.81
19751;BME280;4663;49.120;9.730;2023-04-27T07:04:02;98265.09;;;7.93;77.90
19751;BME280;4663;49.120;9.730;2023-04-27T07:06:28;98267.44;;;7.87;76.61
19751;BME280;4663;49.120;9.730;2023-04-27T07:08:53;98265.75;;;7.86;76.34
19751;BME280;4663;49.120;9.730;2023-04-27T07:11:19;98266.72;;;7.75;75.88
19751;BME280;4663;49.120;9.730;2023-04-27T07:13:44;98273.00;;;8.25;76.15
19751;BME280;4663;49.120;9.730;2023-04-27T07:16:10;98270.81;;;7.79;75.30
19751;BME280;4663;49.120;9.730;2023-04-27T07:18:35;98265.41;;;7.59;74.84
19751;BME280;4663;49.120;9.730;2023-04-27T07:21:01;98272.38;;;7.81;75.63
19751;BME280;4663;49.120;9.730;2023-04-27T07:23:26;98277.31;;;7.96;76.40
19751;BME280;4663;49.120;9.730;2023-04-27T07:25:51;98277.91;;;8.19;75.39
19751;BME280;4663;49.120;9.730;2023-04-27T07:28:18;98272.44;;;8.31;75.61
19751;BME280;4663;49.120;9.730;2023-04-27T07:30:43;98273.09;;;7.83;74.78
19751;BME280;4663;49.120;9.730;2023-04-27T07:33:09;98278.22;;;8.36;74.67
19751;BME280;4663;49.120;9.730;2023-04-27T07:35:35;98277.66;;;8.82;74.80
19751;BME280;4663;49.120;9.730;2023-04-27T07:38:01;98274.69;;;9.15;74.72
19751;BME280;4663;49.120;9.730;2023-04-27T07:40:28;98262.59;;;9.48;71.94
19751;BME280;4663;49.120;9.730;2023-04-27T07:42:54;98261.41;;;9.23;71.64
19751;BME280;4663;49.120;9.730;2023-04-27T07:45:22;98252.03;;;9.47;71.14
19751;BME280;4663;49.120;9.730;2023-04-27T07:47:55;98259.19;;;10.02;70.56
19751;BME280;4663;49.120;9.730;2023-04-27T07:50:22;98263.13;;;10.26;70.27
19751;BME280;4663;49.120;9.730;2023-04-27T07:52:49;98263.19;;;10.35;69.71
19751;BME280;4663;49.120;9.730;2023-04-27T07:55:14;98260.28;;;10.46;69.24
19751;BME280;4663;49.120;9.730;2023-04-27T07:57:40;98245.00;;;10.57;68.25
19751;BME280;4663;49.120;9.730;2023-04-27T08:00:06;98266.97;;;11.23;71.33
19751;BME280;4663;49.120;9.730;2023-04-27T08:02:35;98258.78;;;11.68;68.05
19751;BME280;4663;49.120;9.730;2023-04-27T08:05:00;98250.88;;;12.01;68.05
19751;BME280;4663;49.120;9.730;2023-04-27T08:07:27;98260.38;;;12.39;67.17
19751;BME280;4663;49.120;9.730;2023-04-27T08:09:52;98264.41;;;12.84;67.08
19751;BME280;4663;49.120;9.730;2023-04-27T08:12:18;98244.06;;;12.82;65.01
19751;BME280;4663;49.120;9.730;2023-04-27T08:14:44;98238.84;;;12.47;63.26
19751;BME280;4663;49.120;9.730;2023-04-27T08:17:09;98254.00;;;12.98;64.53
19751;BME280;4663;49.120;9.730;2023-04-27T08:19:35;98239.28;;;13.82;63.07
19751;BME280;4663;49.120;9.730;2023-04-27T08:22:01;98223.06;;;13.91;60.26
19751;BME280;4663;49.120;9.730;2023-04-27T08:24:26;98205.25;;;13.73;58.87
19751;BME280;4663;49.120;9.730;2023-04-27T08:26:51;98237.63;;;14.36;61.68
19751;BME280;4663;49.120;9.730;2023-04-27T08:29:17;98208.16;;;14.73;58.65
19751;BME280;4663;49.120;9.730;2023-04-27T08:31:43;98230.53;;;14.82;59.63
19751;BME280;4663;49.120;9.730;2023-04-27T08:34:09;98244.38;;;15.93;60.77
19751;BME280;4663;49.120;9.730;2023-04-27T08:36:35;98192.31;;;14.00;56.72
19751;BME280;4663;49.120;9.730;2023-04-27T08:39:00;98229.13;;;15.40;61.09
19751;BME280;4663;49.120;9.730;2023-04-27T08:41:26;98223.41;;;16.32;59.14
19751;BME280;4663;49.120;9.730;2023-04-27T08:43:51;98157.59;;;14.67;54.39
19751;BME280;4663;49.120;9.730;2023-04-27T08:46:22;98177.00;;;14.24;56.21
19751;BME280;4663;49.120;9.730;2023-04-27T08:48:52;98188.34;;;14.43;56.51
19751;BME280;4663;49.120;9.730;2023-04-27T08:51:18;98195.34;;;14.52;56.52
19751;BME280;4663;49.120;9.730;2023-04-27T08:53:49;98204.56;;;16.45;57.03
19751;BME280;4663;49.120;9.730;2023-04-27T08:56:19;98182.47;;;16.70;53.98
19751;BME280;4663;49.120;9.730;2023-04-27T08:58:47;98191.03;;;16.45;54.72
19751;BME280;4663;49.120;9.730;2023-04-27T09:01:13;98193.63;;;16.82;54.94
19751;BME280;4663;49.120;9.730;2023-04-27T09:03:38;98175.41;;;17.76;52.43
19751;BME280;4663;49.120;9.730;2023-04-27T09:06:04;98178.47;;;18.21;53.67
19751;BME280;4663;49.120;9.730;2023-04-27T09:08:49;98142.75;;;18.24;50.29
19751;BME280;4663;49.120;9.730;2023-04-27T09:11:26;98139.63;;;16.74;49.97
19751;BME280;4663;49.120;9.730;2023-04-27T09:13:52;98171.72;;;17.41;52.41
19751;BME280;4663;49.120;9.730;2023-04-27T09:16:22;98179.50;;;17.58;52.51
19751;BME280;4663;49.120;9.730;2023-04-27T09:18:47;98160.78;;;17.70;50.88
19751;BME280;4663;49.120;9.730;2023-04-27T09:21:29;98139.59;;;17.03;49.91
19751;BME280;4663;49.120;9.730;2023-04-27T09:24:09;98126.69;;;16.04;50.03
19751;BME280;4663;49.120;9.730;2023-04-27T09:26:36;98194.19;;;17.77;53.92
19751;BME280;4663;49.120;9.730;2023-04-27T09:29:01;98172.03;;;18.63;50.86
19751;BME280;4663;49.120;9.730;2023-04-27T09:31:45;98164.31;;;18.94;50.10
19751;BME280;4663;49.120;9.730;2023-04-27T09:34:10;98135.84;;;18.02;47.94
19751;BME280;4663;49.120;9.730;2023-04-27T09:36:36;98200.06;;;17.88;53.49
19751;BME280;4663;49.120;9.730;2023-04-27T09:39:02;98141.72;;;18.86;47.89
19751;BME280;4663;49.120;9.730;2023-04-27T09:41:34;98124.78;;;18.98;46.37
19751;BME280;4663;49.120;9.730;2023-04-27T09:44:00;98190.59;;;20.25;50.34
19751;BME280;4663;49.120;9.730;2023-04-27T09:46:26;98152.63;;;20.37;47.29
19751;BME280;4663;49.120;9.730;2023-04-27T09:48:53;98138.81;;;18.74;47.36
19751;BME280;4663;49.120;9.730;2023-04-27T09:51:19;98119.56;;;18.02;47.08
19751;BME280;4663;49.120;9.730;2023-04-27T09:53:54;98133.34;;;18.41;47.22
19751;BME280;4663;49.120;9.730;2023-04-27T10:02:09;98115.78;;;20.02;44.40
19751;BME280;4663;49.120;9.730;2023-04-27T10:07:11;98138.34;;;20.10;46.92
19751;BME280;4663;49.120;9.730;2023-04-27T10:09:44;98071.88;;;19.92;42.34
19751;BME280;4663;49.120;9.730;2023-04-27T10:14:56;98124.09;;;20.08;45.27
19751;BME280;4663;49.120;9.730;2023-04-27T10:17:32;98089.31;;;19.77;43.13
19751;BME280;4663;49.120;9.730;2023-04-27T10:20:02;98133.44;;;19.34;47.65
19751;BME280;4663;49.120;9.730;2023-04-27T10:27:49;98143.81;;;18.78;48.23
19751;BME280;4663;49.120;9.730;2023-04-27T10:30:17;98083.22;;;18.57;45.26
19751;BME280;4663;49.120;9.730;2023-04-27T10:32:54;98151.25;;;20.53;47.13
19751;BME280;4663;49.120;9.730;2023-04-27T10:35:21;98122.53;;;20.51;45.80
19751;BME280;4663;49.120;9.730;2023-04-27T10:37:47;98112.50;;;18.55;46.61
19751;BME280;4663;49.120;9.730;2023-04-27T10:40:13;98121.66;;;18.60;47.03
19751;BME280;4663;49.120;9.730;2023-04-27T10:42:40;98126.66;;;18.70;48.17
19751;BME280;4663;49.120;9.730;2023-04-27T10:45:06;98114.16;;;18.83;46.93
19751;BME280;4663;49.120;9.730;2023-04-27T10:47:40;98084.31;;;19.28;44.19
19751;BME280;4663;49.120;9.730;2023-04-27T10:50:08;98136.81;;;19.88;47.38
19751;BME280;4663;49.120;9.730;2023-04-27T10:52:39;98118.50;;;19.63;46.51
19751;BME280;4663;49.120;9.730;2023-04-27T10:55:21;98107.06;;;19.41;45.50
19751;BME280;4663;49.120;9.730;2023-04-27T10:57:56;98086.09;;;19.02;43.84
19751;BME280;4663;49.120;9.730;2023-04-27T11:02:56;98060.28;;;18.46;44.07
19751;BME280;4663;49.120;9.730;2023-04-27T11:05:26;98110.63;;;19.42;46.68
19751;BME280;4663;49.120;9.730;2023-04-27T11:08:07;98104.00;;;19.76;45.58
19751;BME280;4663;49.120;9.730;2023-04-27T11:10:33;98097.00;;;19.94;44.96
19751;BME280;4663;49.120;9.730;2023-04-27T11:13:06;98059.44;;;18.05;44.71
19751;BME280;4663;49.120;9.730;2023-04-27T11:15:44;98059.28;;;17.37;45.70
19751;BME280;4663;49.120;9.730;2023-04-27T11:18:10;98088.53;;;17.48;46.81
19751;BME280;4663;49.120;9.730;2023-04-27T11:20:35;98099.53;;;18.30;46.70
19751;BME280;4663;49.120;9.730;2023-04-27T11:23:01;98079.47;;;18.51;45.83
19751;BME280;4663;49.120;9.730;2023-04-27T11:25:29;98126.31;;;19.92;47.93
19751;BME280;4663;49.120;9.730;2023-04-27T11:27:54;98070.84;;;19.47;44.49
19751;BME280;4663;49.120;9.730;2023-04-27T11:30:21;98100.78;;;19.86;45.69
19751;BME280;4663;49.120;9.730;2023-04-27T11:32:47;98124.44;;;19.40;48.02
19751;BME280;4663;49.120;9.730;2023-04-27T11:35:13;98066.47;;;18.94;45.58
19751;BME280;4663;49.120;9.730;2023-04-27T11:37:39;98073.25;;;18.23;45.89
19751;BME280;4663;49.120;9.730;2023-04-27T11:40:05;98114.88;;;19.76;47.35
19751;BME280;4663;49.120;9.730;2023-04-27T11:42:30;98094.41;;;20.32;45.05
19751;BME280;4663;49.120;9.730;2023-04-27T11:45:00;98060.31;;;19.19;44.61
19751;BME280;4663;49.120;9.730;2023-04-27T11:47:28;98055.00;;;18.85;44.68
19751;BME280;4663;49.120;9.730;2023-04-27T11:49:55;98084.72;;;19.39;46.21
19751;BME280;4663;49.120;9.730;2023-04-27T11:52:22;98067.13;;;18.69;46.20
19751;BME280;4663;49.120;9.730;2023-04-27T11:54:53;98100.50;;;19.62;46.99
19751;BME280;4663;49.120;9.730;2023-04-27T11:57:24;98082.97;;;18.92;46.82
19751;BME280;4663;49.120;9.730;2023-04-27T11:59:51;98051.66;;;18.69;44.60
19751;BME280;4663;49.120;9.730;2023-04-27T12:02:17;98048.59;;;18.25;44.94
19751;BME280;4663;49.120;9.730;2023-04-27T12:04:43;98077.59;;;18.79;46.53
19751;BME280;4663;49.120;9.730;2023-04-27T12:07:08;98070.09;;;18.20;47.17
19751;BME280;4663;49.120;9.730;2023-04-27T12:09:34;98075.94;;;18.57;47.00
19751;BME280;4663;49.120;9.730;2023-04-27T12:11:59;98086.56;;;18.72;47.52
19751;BME280;4663;49.120;9.730;2023-04-27T12:14:26;98069.41;;;17.77;48.41
19751;BME280;4663;49.120;9.730;2023-04-27T12:16:52;98067.78;;;18.17;47.53
19751;BME280;4663;49.120;9.730;2023-04-27T12:19:17;98079.81;;;17.80;48.19
19751;BME280;4663;49.120;9.730;2023-04-27T12:21:42;98059.75;;;17.54;46.83
19751;BME280;4663;49.120;9.730;2023-04-27T12:24:08;98058.44;;;17.30;47.22
19751;BME280;4663;49.120;9.730;2023-04-27T12:26:33;98055.41;;;17.04;47.06
19751;BME280;4663;49.120;9.730;2023-04-27T12:28:59;98108.31;;;17.42;50.41
19751;BME280;4663;49.120;9.730;2023-04-27T12:31:25;98098.78;;;17.53;50.05
19751;BME280;4663;49.120;9.730;2023-04-27T12:33:50;98061.22;;;17.64;47.43
19751;BME280;4663;49.120;9.730;2023-04-27T12:36:16;98077.19;;;18.01;47.43
19751;BME280;4663;49.120;9.730;2023-04-27T12:38:42;98083.44;;;18.55;48.15
19751;BME280;4663;49.120;9.730;2023-04-27T12:41:07;98066.13;;;18.36;46.96
19751;BME280;4663;49.120;9.730;2023-04-27T12:43:33;98050.25;;;18.06;45.87
19751;BME280;4663;49.120;9.730;2023-04-27T12:46:01;98063.81;;;18.12;47.05
19751;BME280;4663;49.120;9.730;2023-04-27T12:48:27;98063.78;;;17.85;47.43
19751;BME280;4663;49.120;9.730;2023-04-27T12:50:52;98091.72;;;17.79;49.70
19751;BME280;4663;49.120;9.730;2023-04-27T12:53:18;98085.72;;;17.91;48.86
19751;BME280;4663;49.120;9.730;2023-04-27T12:55:43;98112.91;;;18.38;50.82
19751;BME280;4663;49.120;9.730;2023-04-27T12:58:09;98124.56;;;18.99;52.31
19751;BME280;4663;49.120;9.730;2023-04-27T13:00:34;98085.19;;;19.15;49.71
19751;BME280;4663;49.120;9.730;2023-04-27T13:02:59;98049.41;;;18.53;47.68
19751;BME280;4663;49.120;9.730;2023-04-27T13:05:25;98061.69;;;18.62;48.97
19751;BME280;4663;49.120;9.730;2023-04-27T13:07:51;98068.16;;;18.88;48.96
19751;BME280;4663;49.120;9.730;2023-04-27T13:10:16;98091.97;;;19.45;49.59
19751;BME280;4663;49.120;9.730;2023-04-27T13:12:42;98058.00;;;19.68;47.16
19751;BME280;4663;49.120;9.730;2023-04-27T13:15:08;98060.13;;;19.13;48.29
19751;BME280;4663;49.120;9.730;2023-04-27T13:17:34;98061.50;;;19.30;48.48
19751;BME280;4663;49.120;9.730;2023-04-27T13:19:59;98062.59;;;19.22;48.83
19751;BME280;4663;49.120;9.730;2023-04-27T13:22:24;98052.56;;;19.22;48.26
19751;BME280;4663;49.120;9.730;2023-04-27T13:24:50;98029.69;;;18.91;46.93
19751;BME280;4663;49.120;9.730;2023-04-27T13:27:15;98022.69;;;18.22;47.26
19751;BME280;4663;49.120;9.730;2023-04-27T13:29:41;98023.06;;;17.65;48.05
19751;BME280;4663;49.120;9.730;2023-04-27T13:32:06;98036.06;;;18.31;48.10